createdAt,value
2023-08-27T00:00:06.133Z,20.30
2023-08-27T00:15:18.241Z,19.60
2023-08-27T00:30:22.864Z,20.60
2023-08-27T00:45:27.981Z,19.50
2023-08-27T01:00:33.542Z,20.10
2023-08-27T01:15:38.394Z,20.00
2023-08-27T01:30:51.553Z,19.80
2023-08-27T01:45:56.079Z,19.90
2023-08-27T02:01:01.088Z,19.80
2023-08-27T02:16:06.003Z,19.60
2023-08-27T02:31:11.673Z,19.40
2023-08-27T02:46:16.197Z,19.10
2023-08-27T03:01:21.446Z,18.70
2023-08-27T03:16:27.906Z,18.80
2023-08-27T03:31:32.444Z,18.80
2023-08-27T03:46:38.801Z,18.70
2023-08-27T04:01:44.241Z,18.70
2023-08-27T04:16:49.810Z,18.50
2023-08-27T04:31:54.283Z,18.30
2023-08-27T04:46:58.964Z,18.40
2023-08-27T05:02:04.010Z,18.60
2023-08-27T05:17:08.517Z,18.30
2023-08-27T05:32:13.059Z,17.90
2023-08-27T05:47:19.453Z,18.40
2023-08-27T06:02:25.374Z,18.50
2023-08-27T06:17:30.781Z,18.20
2023-08-27T06:32:35.540Z,18.10
2023-08-27T06:47:40.340Z,18.20
2023-08-27T07:02:45.469Z,18.00
2023-08-27T07:17:50.916Z,18.30
2023-08-27T07:32:55.443Z,18.00
2023-08-27T07:48:00.306Z,18.10
2023-08-27T08:03:05.996Z,18.70
2023-08-27T08:18:10.595Z,18.30
2023-08-27T08:33:15.272Z,18.90
2023-08-27T08:48:26.668Z,18.50
2023-08-27T09:03:32.677Z,19.00
2023-08-27T09:18:37.562Z,18.80
2023-08-27T09:33:43.336Z,19.10
2023-08-27T09:48:59.135Z,19.40
2023-08-27T10:04:08.867Z,19.70
2023-08-27T10:19:15.157Z,19.70
2023-08-27T10:34:20.090Z,19.90
2023-08-27T10:49:24.608Z,20.20
2023-08-27T11:04:36.734Z,20.20
2023-08-27T11:19:47.403Z,20.90
2023-08-27T11:34:54.551Z,20.70
2023-08-27T11:50:00.458Z,20.70
2023-08-27T12:05:05.731Z,20.70
2023-08-27T12:20:11.287Z,20.90
2023-08-27T12:35:15.868Z,21.20
2023-08-27T12:50:20.445Z,21.50
2023-08-27T13:05:24.973Z,21.70
2023-08-27T13:20:29.479Z,22.10
2023-08-27T13:35:34.347Z,21.60
2023-08-27T13:50:38.994Z,22.00
2023-08-27T14:05:43.759Z,22.40
2023-08-27T14:20:48.362Z,23.20
2023-08-27T14:35:52.894Z,22.30
2023-08-27T14:51:16.183Z,26.10
2023-08-27T15:06:20.630Z,23.00
2023-08-27T15:21:25.793Z,22.40
2023-08-27T15:36:30.238Z,21.70
2023-08-27T15:51:34.723Z,21.40
2023-08-27T16:06:39.169Z,20.80
2023-08-27T16:21:45.966Z,21.00
2023-08-27T16:36:50.756Z,22.00
2023-08-27T16:51:55.136Z,22.30
2023-08-27T17:06:59.712Z,22.00
2023-08-27T17:22:04.374Z,21.20
2023-08-27T17:37:27.614Z,21.20
2023-08-27T17:52:32.489Z,20.70
2023-08-27T18:07:36.908Z,20.80
2023-08-27T18:22:41.405Z,20.80
2023-08-27T18:37:46.538Z,20.60
2023-08-27T18:52:51.038Z,20.70
2023-08-27T19:07:56.362Z,20.10
2023-08-27T19:23:00.851Z,20.30
2023-08-27T19:38:07.156Z,20.50
2023-08-27T19:53:11.650Z,20.20
2023-08-27T20:08:16.109Z,20.30
2023-08-27T20:23:20.551Z,19.80
2023-08-27T20:38:25.667Z,19.80
2023-08-27T20:53:30.546Z,19.50
2023-08-27T21:08:34.977Z,19.80
2023-08-27T21:23:58.053Z,19.10
2023-08-27T21:39:02.505Z,19.20
2023-08-27T21:54:07.418Z,18.80
2023-08-27T22:09:30.524Z,18.50
2023-08-27T22:24:34.944Z,18.80
2023-08-27T22:39:39.455Z,18.60
2023-08-27T22:55:02.323Z,18.90
2023-08-27T23:10:07.643Z,18.40
2023-08-27T23:25:12.203Z,18.70
2023-08-27T23:40:16.878Z,18.90
2023-08-27T23:55:21.445Z,18.50
